createdAt,value
2018-10-04T00:02:10.131Z,11.90
2018-10-04T00:04:38.474Z,11.90
2018-10-04T00:07:06.666Z,11.80
2018-10-04T00:09:35.343Z,11.90
2018-10-04T00:12:03.788Z,11.70
2018-10-04T00:14:32.282Z,11.70
2018-10-04T00:17:00.656Z,11.70
2018-10-04T00:19:28.906Z,11.70
2018-10-04T00:21:57.163Z,11.70
2018-10-04T00:24:26.333Z,11.70
2018-10-04T00:26:54.529Z,11.80
2018-10-04T00:29:22.767Z,11.60
2018-10-04T00:31:51.095Z,11.70
2018-10-04T00:34:19.374Z,11.70
2018-10-04T00:36:47.626Z,11.70
2018-10-04T00:39:15.878Z,11.70
2018-10-04T00:41:44.634Z,11.70
2018-10-04T00:44:12.887Z,11.60
2018-10-04T00:46:41.434Z,11.70
2018-10-04T00:49:10.064Z,11.60
2018-10-04T00:51:38.373Z,11.60
2018-10-04T00:54:06.708Z,11.40
2018-10-04T00:56:35.210Z,11.60
2018-10-04T00:59:04.053Z,11.50
2018-10-04T01:01:32.545Z,11.60
2018-10-04T01:04:00.955Z,11.60
2018-10-04T01:06:29.599Z,11.50
2018-10-04T01:08:57.841Z,11.40
2018-10-04T01:11:27.124Z,11.30
2018-10-04T01:13:55.711Z,11.20
2018-10-04T01:16:24.129Z,11.20
2018-10-04T01:18:55.539Z,11.20
2018-10-04T01:21:24.053Z,11.30
2018-10-04T01:23:54.245Z,11.40
2018-10-04T01:26:22.582Z,11.40
2018-10-04T01:28:51.464Z,11.40
2018-10-04T01:31:21.214Z,11.40
2018-10-04T01:33:50.277Z,11.30
2018-10-04T01:36:19.385Z,11.30
2018-10-04T01:38:48.566Z,11.40
2018-10-04T01:41:17.353Z,11.40
2018-10-04T01:43:45.553Z,11.40
2018-10-04T01:46:13.750Z,11.40
2018-10-04T01:48:42.133Z,11.40
2018-10-04T01:51:10.704Z,11.30
2018-10-04T01:53:38.909Z,11.40
2018-10-04T01:56:07.122Z,11.30
2018-10-04T01:58:35.333Z,11.20
2018-10-04T02:01:04.147Z,11.10
2018-10-04T02:03:32.618Z,11.20
2018-10-04T02:06:00.937Z,11.20
2018-10-04T02:08:29.198Z,11.20
2018-10-04T02:10:57.447Z,11.10
2018-10-04T02:13:25.893Z,11.10
2018-10-04T02:15:55.145Z,11.10
2018-10-04T02:18:23.341Z,11.00
2018-10-04T02:20:51.790Z,11.10
2018-10-04T02:23:20.034Z,11.10
2018-10-04T02:25:48.590Z,11.10
2018-10-04T02:28:17.007Z,11.10
2018-10-04T02:30:45.210Z,11.00
2018-10-04T02:33:13.457Z,11.10
2018-10-04T02:35:41.754Z,11.10
2018-10-04T02:38:10.579Z,10.80
2018-10-04T02:40:38.842Z,10.70
2018-10-04T02:43:07.103Z,10.60
2018-10-04T02:45:35.370Z,10.60
2018-10-04T02:48:04.199Z,10.70
2018-10-04T02:50:33.234Z,10.80
2018-10-04T02:53:01.778Z,10.70
2018-10-04T02:55:35.373Z,10.70
2018-10-04T02:58:04.162Z,10.60
2018-10-04T03:00:32.638Z,10.70
2018-10-04T03:03:02.542Z,10.70
2018-10-04T03:05:30.760Z,10.60
2018-10-04T03:07:58.982Z,10.50
2018-10-04T03:10:27.255Z,10.40
2018-10-04T03:12:56.700Z,10.50
2018-10-04T03:15:24.994Z,10.60
2018-10-04T03:17:53.289Z,10.50
2018-10-04T03:20:21.695Z,10.60
2018-10-04T03:22:49.989Z,10.50
2018-10-04T03:25:18.969Z,10.50
2018-10-04T03:27:47.371Z,10.40
2018-10-04T03:30:15.737Z,10.50
2018-10-04T03:32:43.868Z,10.50
2018-10-04T03:35:12.083Z,10.50
2018-10-04T03:37:40.298Z,10.60
2018-10-04T03:40:08.482Z,10.70
2018-10-04T03:42:36.658Z,10.70
2018-10-04T03:45:04.951Z,10.60
2018-10-04T03:47:33.522Z,10.50
2018-10-04T03:50:01.948Z,10.40
2018-10-04T03:52:30.157Z,10.40
2018-10-04T03:54:58.433Z,10.40
2018-10-04T03:57:26.868Z,10.50
2018-10-04T03:59:55.221Z,10.50
2018-10-04T04:02:23.453Z,10.40
2018-10-04T04:04:51.702Z,10.30
2018-10-04T04:07:19.931Z,10.50
2018-10-04T04:09:49.074Z,10.40
2018-10-04T04:12:17.461Z,10.30
2018-10-04T04:14:45.717Z,10.30
2018-10-04T04:17:14.029Z,10.40
2018-10-04T04:19:42.365Z,10.50
2018-10-04T04:22:10.911Z,10.40
2018-10-04T04:24:39.626Z,10.40
2018-10-04T04:27:08.121Z,10.40
2018-10-04T04:29:36.522Z,10.30
2018-10-04T04:32:05.039Z,10.20
2018-10-04T04:34:33.289Z,10.20
2018-10-04T04:37:01.543Z,10.20
2018-10-04T04:39:29.710Z,10.30
2018-10-04T04:41:57.928Z,10.30
2018-10-04T04:44:26.224Z,10.20
2018-10-04T04:46:54.915Z,10.20
2018-10-04T04:49:23.095Z,10.20
2018-10-04T04:51:51.282Z,10.30
2018-10-04T04:55:34.505Z,10.20
2018-10-04T04:58:03.894Z,10.20
2018-10-04T05:00:33.133Z,10.10
2018-10-04T05:03:01.470Z,10.10
2018-10-04T05:05:30.470Z,10.00
2018-10-04T05:07:59.911Z,10.00
2018-10-04T05:10:28.687Z,10.10
2018-10-04T05:12:57.969Z,10.10
2018-10-04T05:15:27.035Z,10.00
2018-10-04T05:17:55.575Z,9.90
2018-10-04T05:20:24.171Z,9.70
2018-10-04T05:22:52.606Z,9.70
2018-10-04T05:25:20.807Z,9.80
2018-10-04T05:27:49.932Z,9.90
2018-10-04T05:30:18.607Z,9.80
2018-10-04T05:32:47.952Z,9.90
2018-10-04T05:35:16.774Z,10.00
2018-10-04T05:37:45.327Z,10.10
2018-10-04T05:40:13.851Z,10.10
2018-10-04T05:42:42.203Z,10.10
2018-10-04T05:45:10.793Z,10.20
2018-10-04T05:47:38.937Z,10.10
2018-10-04T05:50:07.186Z,10.30
2018-10-04T05:52:35.412Z,10.30
2018-10-04T05:55:03.829Z,10.50
2018-10-04T05:57:32.046Z,10.50
2018-10-04T06:00:11.695Z,10.60
2018-10-04T06:02:40.068Z,10.60
2018-10-04T06:05:08.642Z,10.50
2018-10-04T06:07:36.969Z,10.50
2018-10-04T06:10:05.702Z,10.50
2018-10-04T06:12:34.069Z,10.70
2018-10-04T06:15:02.430Z,11.00
2018-10-04T06:17:30.646Z,11.20
2018-10-04T06:19:58.843Z,11.30
2018-10-04T06:22:27.063Z,11.30
2018-10-04T06:24:56.239Z,11.40
2018-10-04T06:27:24.462Z,11.40
2018-10-04T06:29:52.926Z,11.40
2018-10-04T06:32:21.137Z,11.50
2018-10-04T06:34:49.464Z,11.70
2018-10-04T06:37:18.343Z,11.70
2018-10-04T06:39:46.675Z,11.80
2018-10-04T06:42:15.125Z,11.90
2018-10-04T06:44:43.312Z,12.00
2018-10-04T06:47:12.397Z,12.10
2018-10-04T06:49:40.826Z,12.50
2018-10-04T06:52:09.103Z,12.60
2018-10-04T06:54:37.291Z,12.80
2018-10-04T06:57:05.552Z,13.20
2018-10-04T06:59:34.070Z,13.80
2018-10-04T07:02:02.459Z,14.60
2018-10-04T07:04:30.664Z,15.50
2018-10-04T07:06:58.950Z,16.50
2018-10-04T07:09:27.151Z,17.30
2018-10-04T07:11:56.584Z,17.80
2018-10-04T07:14:25.226Z,17.80
2018-10-04T07:16:53.477Z,17.90
2018-10-04T07:19:21.878Z,18.10
2018-10-04T07:21:50.143Z,18.70
2018-10-04T07:24:18.495Z,19.60
2018-10-04T07:26:46.712Z,20.60
2018-10-04T07:29:14.907Z,21.30
2018-10-04T07:31:43.222Z,22.30
2018-10-04T07:34:11.647Z,22.90
2018-10-04T07:36:39.922Z,23.10
2018-10-04T07:39:10.580Z,23.60
2018-10-04T07:41:38.851Z,24.20
2018-10-04T07:44:07.263Z,24.90
2018-10-04T07:46:35.712Z,25.80
2018-10-04T07:49:04.228Z,26.80
2018-10-04T07:51:32.589Z,27.40
2018-10-04T07:54:00.840Z,28.00
2018-10-04T07:56:29.117Z,28.50
2018-10-04T07:58:57.387Z,29.20
2018-10-04T08:01:25.650Z,30.00
2018-10-04T08:03:54.014Z,30.90
2018-10-04T08:06:22.501Z,31.60
2018-10-04T08:08:50.577Z,32.40
2018-10-04T08:11:19.796Z,32.90
2018-10-04T08:13:49.189Z,33.50
2018-10-04T08:16:17.437Z,33.60
2018-10-04T08:18:45.862Z,33.90
2018-10-04T08:21:14.256Z,34.20
2018-10-04T08:23:42.452Z,34.80
2018-10-04T08:26:10.912Z,35.60
2018-10-04T08:28:39.205Z,36.30
2018-10-04T08:31:07.554Z,36.90
2018-10-04T08:33:35.948Z,37.30
2018-10-04T08:36:04.916Z,37.90
2018-10-04T08:38:33.711Z,38.40
2018-10-04T08:41:02.511Z,38.70
2018-10-04T08:43:30.782Z,38.60
2018-10-04T08:45:59.090Z,38.60
2018-10-04T08:48:27.381Z,38.70
2018-10-04T08:50:55.700Z,38.70
2018-10-04T08:53:23.968Z,38.10
2018-10-04T08:55:52.295Z,38.10
2018-10-04T08:58:20.531Z,38.30
2018-10-04T09:00:49.794Z,38.90
2018-10-04T09:03:19.809Z,39.60
2018-10-04T09:05:48.469Z,40.20
2018-10-04T09:08:17.536Z,41.00
2018-10-04T09:10:45.779Z,41.30
2018-10-04T09:13:14.030Z,41.50
2018-10-04T09:15:42.379Z,41.80
2018-10-04T09:18:10.761Z,42.10
2018-10-04T09:20:39.196Z,42.60
2018-10-04T09:23:07.427Z,43.40
2018-10-04T09:25:35.886Z,44.10
2018-10-04T09:28:06.208Z,44.70
2018-10-04T09:30:39.943Z,45.00
2018-10-04T09:33:08.206Z,44.70
2018-10-04T09:35:36.476Z,44.00
2018-10-04T09:38:04.757Z,43.40
2018-10-04T09:40:33.252Z,43.70
2018-10-04T09:43:01.903Z,43.80
2018-10-04T09:45:30.099Z,43.20
2018-10-04T09:47:58.451Z,42.40
2018-10-04T09:50:32.487Z,42.20
2018-10-04T09:53:00.734Z,42.80
2018-10-04T09:55:33.200Z,43.30
2018-10-04T09:58:02.276Z,42.30
2018-10-04T10:00:36.013Z,41.50
2018-10-04T10:03:08.411Z,41.20
2018-10-04T10:05:36.833Z,42.00
2018-10-04T10:08:04.997Z,43.00
2018-10-04T10:10:33.913Z,43.20
2018-10-04T10:13:02.419Z,43.70
2018-10-04T10:15:30.642Z,43.60
2018-10-04T10:17:58.924Z,44.20
2018-10-04T10:20:27.189Z,45.10
2018-10-04T10:22:55.494Z,45.90
2018-10-04T10:25:23.772Z,46.40
2018-10-04T10:27:52.020Z,46.20
2018-10-04T10:30:20.286Z,45.90
2018-10-04T10:32:49.095Z,46.40
2018-10-04T10:35:18.590Z,46.90
2018-10-04T10:37:46.799Z,47.70
2018-10-04T10:40:15.135Z,48.40
2018-10-04T10:42:43.266Z,49.10
2018-10-04T10:45:12.153Z,49.60
2018-10-04T10:47:41.115Z,49.90
2018-10-04T10:50:09.561Z,50.10
2018-10-04T10:52:37.795Z,50.00
2018-10-04T10:55:06.067Z,49.80
2018-10-04T10:57:34.435Z,49.10
2018-10-04T11:00:03.397Z,48.60
2018-10-04T11:02:32.624Z,48.70
2018-10-04T11:05:01.015Z,48.40
2018-10-04T11:07:29.495Z,48.30
2018-10-04T11:09:57.740Z,48.90
2018-10-04T11:12:27.036Z,48.40
2018-10-04T11:14:55.266Z,48.60
2018-10-04T11:17:23.496Z,48.90
2018-10-04T11:19:51.713Z,49.40
2018-10-04T11:22:19.926Z,49.40
2018-10-04T11:24:48.874Z,49.60
2018-10-04T11:27:17.665Z,49.60
2018-10-04T11:29:45.897Z,49.90
2018-10-04T11:32:14.813Z,50.40
2018-10-04T11:34:43.062Z,50.80
2018-10-04T11:37:12.281Z,50.90
2018-10-04T11:39:40.762Z,50.40
2018-10-04T11:42:09.496Z,49.90
2018-10-04T11:44:42.197Z,50.00
2018-10-04T11:47:16.527Z,49.10
2018-10-04T11:49:44.953Z,49.20
2018-10-04T11:52:13.196Z,49.70
2018-10-04T11:54:42.074Z,49.20
2018-10-04T11:57:11.646Z,49.40
2018-10-04T11:59:40.791Z,49.00
2018-10-04T12:02:09.064Z,48.00
2018-10-04T12:04:37.260Z,47.80
2018-10-04T12:07:05.610Z,48.10
2018-10-04T12:09:34.660Z,48.50
2018-10-04T12:12:03.453Z,47.70
2018-10-04T12:14:31.728Z,47.20
2018-10-04T12:17:00.115Z,47.40
2018-10-04T12:19:28.421Z,47.40
2018-10-04T12:21:57.195Z,47.60
2018-10-04T12:24:25.460Z,47.50
2018-10-04T12:26:53.670Z,47.40
2018-10-04T12:29:21.896Z,47.20
2018-10-04T12:31:50.117Z,46.00
2018-10-04T12:34:18.342Z,44.10
2018-10-04T12:36:46.611Z,41.60
2018-10-04T12:39:14.862Z,38.90
2018-10-04T12:41:43.081Z,36.50
2018-10-04T12:44:11.372Z,34.60
2018-10-04T12:46:39.538Z,33.00
2018-10-04T12:49:08.003Z,32.00
2018-10-04T12:51:36.281Z,31.30
2018-10-04T12:54:04.993Z,30.60
2018-10-04T12:56:33.777Z,29.70
2018-10-04T12:59:03.420Z,29.10
2018-10-04T13:01:31.685Z,28.40
2018-10-04T13:04:00.139Z,28.10
2018-10-04T13:06:28.404Z,27.80
2018-10-04T13:08:56.697Z,27.60
2018-10-04T13:11:25.185Z,26.70
2018-10-04T13:13:53.381Z,26.50
2018-10-04T13:16:21.586Z,27.30
2018-10-04T13:18:49.869Z,28.60
2018-10-04T13:21:19.226Z,29.70
2018-10-04T13:23:48.210Z,31.60
2018-10-04T13:26:16.377Z,33.00
2018-10-04T13:28:44.605Z,33.40
2018-10-04T13:31:12.857Z,32.50
2018-10-04T13:33:41.460Z,31.10
2018-10-04T13:36:09.773Z,29.70
2018-10-04T13:38:37.975Z,27.70
2018-10-04T13:41:06.199Z,27.00
2018-10-04T13:43:34.932Z,27.10
2018-10-04T13:46:03.253Z,27.20
2018-10-04T13:48:31.372Z,26.90
2018-10-04T13:50:59.865Z,26.30
2018-10-04T13:53:28.035Z,25.80
2018-10-04T13:55:56.263Z,25.60
2018-10-04T13:58:24.649Z,25.50
2018-10-04T14:00:52.854Z,25.20
2018-10-04T14:03:21.073Z,25.10
2018-10-04T14:05:49.686Z,25.30
2018-10-04T14:08:18.752Z,25.20
2018-10-04T14:10:46.933Z,25.00
2018-10-04T14:13:15.180Z,24.90
2018-10-04T14:15:43.324Z,25.00
2018-10-04T14:18:12.366Z,26.10
2018-10-04T14:20:40.677Z,27.50
2018-10-04T14:23:08.882Z,28.50
2018-10-04T14:25:37.113Z,29.00
2018-10-04T14:28:05.375Z,29.00
2018-10-04T14:30:33.834Z,28.60
2018-10-04T14:33:02.334Z,28.30
2018-10-04T14:35:30.504Z,27.70
2018-10-04T14:37:58.865Z,27.00
2018-10-04T14:40:27.658Z,26.40
2018-10-04T14:42:56.011Z,25.90
2018-10-04T14:45:24.205Z,25.40
2018-10-04T14:47:52.485Z,24.90
2018-10-04T14:50:20.689Z,24.70
2018-10-04T14:52:49.721Z,24.40
2018-10-04T14:55:18.162Z,24.30
2018-10-04T14:57:46.357Z,24.30
2018-10-04T15:00:14.694Z,24.30
2018-10-04T15:02:42.892Z,24.20
2018-10-04T15:05:11.235Z,24.10
2018-10-04T15:07:39.457Z,23.80
2018-10-04T15:10:07.790Z,23.30
2018-10-04T15:12:36.085Z,23.20
2018-10-04T15:15:04.482Z,23.10
2018-10-04T15:17:32.856Z,23.10
2018-10-04T15:20:01.050Z,22.90
2018-10-04T15:22:29.261Z,23.00
2018-10-04T15:24:57.657Z,23.20
2018-10-04T15:27:26.498Z,23.60
2018-10-04T15:29:55.377Z,24.10
2018-10-04T15:32:25.754Z,24.50
2018-10-04T15:34:54.059Z,24.70
2018-10-04T15:37:22.315Z,24.10
2018-10-04T15:39:50.603Z,23.90
2018-10-04T15:42:19.426Z,23.80
2018-10-04T15:44:47.610Z,23.60
2018-10-04T15:47:15.831Z,23.60
2018-10-04T15:49:44.006Z,23.60
2018-10-04T15:52:13.148Z,23.60
2018-10-04T15:54:41.517Z,23.80
2018-10-04T15:57:10.026Z,24.30
2018-10-04T15:59:38.207Z,25.20
2018-10-04T16:02:06.589Z,25.90
2018-10-04T16:04:34.942Z,26.60
2018-10-04T16:07:03.225Z,27.10
2018-10-04T16:09:31.433Z,27.50
2018-10-04T16:11:59.729Z,27.50
2018-10-04T16:14:27.990Z,27.10
2018-10-04T16:16:56.326Z,26.40
2018-10-04T16:19:25.278Z,25.80
2018-10-04T16:21:53.522Z,25.10
2018-10-04T16:24:22.107Z,24.70
2018-10-04T16:26:50.332Z,24.30
2018-10-04T16:29:19.661Z,23.90
2018-10-04T16:31:49.079Z,23.50
2018-10-04T16:34:17.245Z,23.10
2018-10-04T16:36:45.500Z,22.70
2018-10-04T16:39:13.694Z,22.40
2018-10-04T16:41:42.051Z,22.10
2018-10-04T16:44:11.060Z,21.80
2018-10-04T16:46:39.232Z,21.50
2018-10-04T16:49:07.398Z,21.30
2018-10-04T16:51:36.174Z,21.00
2018-10-04T16:54:05.036Z,20.70
2018-10-04T16:56:33.249Z,20.60
2018-10-04T16:59:01.445Z,20.50
2018-10-04T17:01:29.664Z,20.30
2018-10-04T17:03:57.893Z,20.10
2018-10-04T17:06:26.585Z,20.00
2018-10-04T17:08:54.897Z,20.00
2018-10-04T17:11:23.106Z,19.80
2018-10-04T17:13:52.083Z,19.70
2018-10-04T17:16:20.774Z,19.60
2018-10-04T17:18:49.518Z,19.40
2018-10-04T17:21:18.146Z,19.40
2018-10-04T17:23:46.515Z,19.30
2018-10-04T17:26:16.262Z,19.20
2018-10-04T17:28:44.661Z,19.20
2018-10-04T17:31:12.874Z,19.10
2018-10-04T17:33:42.029Z,19.10
2018-10-04T17:36:10.336Z,19.00
2018-10-04T17:38:38.513Z,19.00
2018-10-04T17:41:07.295Z,19.00
2018-10-04T17:43:35.648Z,19.00
2018-10-04T17:46:04.319Z,19.00
2018-10-04T17:48:34.317Z,19.00
2018-10-04T17:51:02.562Z,19.00
2018-10-04T17:53:32.098Z,18.90
2018-10-04T17:56:00.469Z,18.80
2018-10-04T17:58:28.782Z,18.60
2018-10-04T18:00:57.266Z,18.30
2018-10-04T18:03:25.868Z,18.40
2018-10-04T18:05:54.205Z,18.40
2018-10-04T18:08:22.593Z,18.40
2018-10-04T18:10:51.147Z,18.40
2018-10-04T18:13:19.874Z,18.40
2018-10-04T18:15:48.218Z,18.30
2018-10-04T18:18:16.584Z,18.10
2018-10-04T18:20:44.807Z,17.90
2018-10-04T18:23:13.103Z,18.00
2018-10-04T18:25:41.663Z,17.80
2018-10-04T18:28:10.334Z,17.80
2018-10-04T18:30:38.509Z,17.80
2018-10-04T18:33:06.944Z,17.80
2018-10-04T18:35:35.253Z,17.70
2018-10-04T18:38:03.530Z,17.50
2018-10-04T18:40:31.782Z,17.20
2018-10-04T18:43:00.414Z,17.20
2018-10-04T18:45:28.799Z,17.30
2018-10-04T18:47:57.033Z,17.20
2018-10-04T18:50:25.438Z,17.20
2018-10-04T18:52:53.644Z,17.30
2018-10-04T18:55:21.838Z,17.30
2018-10-04T18:57:50.319Z,17.20
2018-10-04T19:00:19.467Z,17.20
2018-10-04T19:02:47.737Z,17.20
2018-10-04T19:05:16.034Z,17.20
2018-10-04T19:07:44.388Z,17.30
2018-10-04T19:10:12.574Z,17.20
2018-10-04T19:12:41.501Z,17.20
2018-10-04T19:15:09.689Z,17.20
2018-10-04T19:17:37.942Z,17.30
2018-10-04T19:20:06.443Z,17.30
2018-10-04T19:22:34.677Z,17.30
2018-10-04T19:25:03.242Z,17.10
2018-10-04T19:27:31.486Z,17.10
2018-10-04T19:30:00.518Z,17.00
2018-10-04T19:32:28.850Z,16.80
2018-10-04T19:34:57.112Z,16.80
2018-10-04T19:37:25.434Z,16.60
2018-10-04T19:39:53.879Z,16.60
2018-10-04T19:42:22.073Z,16.50
2018-10-04T19:44:50.363Z,16.60
2018-10-04T19:47:18.662Z,16.40
2018-10-04T19:49:48.196Z,16.20
2018-10-04T19:52:16.425Z,16.20
2018-10-04T19:54:44.682Z,16.20
2018-10-04T19:57:12.905Z,16.20
2018-10-04T19:59:41.365Z,16.10
2018-10-04T20:02:11.106Z,15.90
2018-10-04T20:04:39.282Z,16.00
2018-10-04T20:07:07.486Z,15.90
2018-10-04T20:09:35.720Z,15.90
2018-10-04T20:12:04.317Z,15.60
2018-10-04T20:14:33.019Z,15.50
2018-10-04T20:17:01.527Z,15.50
2018-10-04T20:19:30.131Z,15.30
2018-10-04T20:21:58.644Z,15.00
2018-10-04T20:24:27.263Z,15.20
2018-10-04T20:26:56.017Z,15.00
2018-10-04T20:29:24.340Z,15.00
2018-10-04T20:31:52.744Z,15.10
2018-10-04T20:34:21.341Z,15.20
2018-10-04T20:36:49.790Z,15.30
2018-10-04T20:39:18.157Z,15.30
2018-10-04T20:41:46.474Z,15.20
2018-10-04T20:44:14.696Z,15.20
2018-10-04T20:46:42.973Z,15.00
2018-10-04T20:49:11.362Z,14.90
2018-10-04T20:51:40.948Z,14.80
2018-10-04T20:54:09.260Z,14.90
2018-10-04T20:56:37.597Z,14.70
2018-10-04T20:59:06.288Z,14.60
2018-10-04T21:01:34.578Z,14.70
2018-10-04T21:04:03.621Z,14.70
2018-10-04T21:06:32.025Z,14.50
2018-10-04T21:09:00.333Z,14.50
2018-10-04T21:11:28.616Z,14.50
2018-10-04T21:13:57.169Z,14.50
2018-10-04T21:16:25.615Z,14.60
2018-10-04T21:18:53.918Z,14.70
2018-10-04T21:21:22.300Z,14.70
2018-10-04T21:23:51.065Z,14.70
2018-10-04T21:26:19.477Z,14.60
2018-10-04T21:28:48.193Z,14.40
2018-10-04T21:31:16.414Z,14.40
2018-10-04T21:33:44.703Z,14.40
2018-10-04T21:36:12.954Z,14.50
2018-10-04T21:38:41.185Z,14.60
2018-10-04T21:41:09.381Z,14.60
2018-10-04T21:43:37.655Z,14.40
2018-10-04T21:46:05.919Z,14.40
2018-10-04T21:48:34.212Z,14.30
2018-10-04T21:51:03.079Z,14.30
2018-10-04T21:53:31.325Z,14.30
2018-10-04T21:55:59.531Z,14.20
2018-10-04T21:58:27.739Z,14.20
2018-10-04T22:00:57.179Z,14.20
2018-10-04T22:03:26.416Z,14.20
2018-10-04T22:05:54.761Z,14.10
2018-10-04T22:08:23.227Z,14.00
2018-10-04T22:10:51.801Z,14.00
2018-10-04T22:13:20.082Z,14.00
2018-10-04T22:15:48.414Z,14.00
2018-10-04T22:18:16.672Z,14.10
2018-10-04T22:20:44.858Z,14.10
2018-10-04T22:23:13.946Z,14.10
2018-10-04T22:25:43.516Z,14.10
2018-10-04T22:28:11.998Z,14.00
2018-10-04T22:30:40.558Z,13.90
2018-10-04T22:33:08.812Z,13.70
2018-10-04T22:35:37.065Z,13.80
2018-10-04T22:38:05.358Z,13.70
2018-10-04T22:40:33.722Z,13.70
2018-10-04T22:43:01.957Z,13.80
2018-10-04T22:45:30.273Z,13.70
2018-10-04T22:47:58.559Z,13.50
2018-10-04T22:50:27.055Z,13.40
2018-10-04T22:52:56.238Z,13.50
2018-10-04T22:55:24.441Z,13.60
2018-10-04T22:57:52.621Z,13.50
2018-10-04T23:00:21.090Z,13.30
2018-10-04T23:02:51.152Z,13.30
2018-10-04T23:05:19.539Z,13.20
2018-10-04T23:07:48.564Z,13.20
2018-10-04T23:10:16.784Z,13.30
2018-10-04T23:12:45.002Z,13.20
2018-10-04T23:15:13.217Z,13.20
2018-10-04T23:17:41.759Z,13.20
2018-10-04T23:20:10.190Z,13.10
2018-10-04T23:22:38.501Z,13.20
2018-10-04T23:25:06.918Z,13.00
2018-10-04T23:27:35.647Z,13.00
2018-10-04T23:30:03.962Z,13.20
2018-10-04T23:32:32.170Z,13.10
2018-10-04T23:35:00.929Z,13.10
2018-10-04T23:37:29.126Z,13.10
2018-10-04T23:39:57.530Z,13.00
2018-10-04T23:42:25.794Z,13.00
2018-10-04T23:44:54.059Z,12.90
2018-10-04T23:47:22.313Z,13.00
2018-10-04T23:49:50.654Z,12.80
2018-10-04T23:52:19.964Z,12.80
2018-10-04T23:54:48.598Z,12.70
2018-10-04T23:57:16.801Z,12.50
2018-10-04T23:59:45.147Z,12.40
